FDX9047 EDDK-VHHH
Flight info
| Callsign | FDX9047 |
|---|---|
| Flight time | N/A |
| Altitude | 29000 |
| Route | KUMIK8F KUMIK L603 TESGA DCT ESATI DCT KOMIB DCT OKG DCT ODNEM/N0488F310 DCT AMRAX DCT NARKA DCT DENAK DCT DINRO DCT UDROS DCT BAMUP DCT ROLIN N644 ODILI DCT BARAD M747 SUBUT T923 ERLEV L850 BAKUV N701 LARGI/N0487F330 B701 KRS B738 DSH B712 SOVOD/K0902F330 Y595 PIDWO Z151 SAFOB T898 OGOLI N193 SR L163 TISIB L141 KAMUD/K0904S1010 W186 SADAN Y1 DUMIN/K0891S1070 Y1 OMBON W245 OVRAL B330 KWE W181 DUDIT A599 POU R473 SIERA |
| Aircraft | B77L/H-SDE1E2E3FGHIJ2J3J4J5M1RWXY/LB1D1 |
Departure
| Time | 2026-04-21 22:58 |
|---|---|
| Airport | Cologne Bonn Airport (EDDK) |
Arrival
| Time | N/A |
|---|---|
| Airport | Hong Kong International Airport (VHHH) |
| Time | Latitude | Longitude | Altitude | Speed | Heading |
|---|---|---|---|---|---|
| 2026-04-21 22:20 | 50.87281 | 7.13201 | 238 ft | 0 kts | 227° |
| 2026-04-21 22:36 | 50.87312 | 7.13256 | 238 ft | 4 kts | 228° |
| 2026-04-21 22:36 | 50.87329 | 7.13288 | 238 ft | 4 kts | 246° |
| 2026-04-21 22:36 | 50.87332 | 7.13325 | 238 ft | 4 kts | 297° |
| 2026-04-21 22:37 | 50.87319 | 7.13350 | 239 ft | 4 kts | 317° |
| 2026-04-21 22:37 | 50.87304 | 7.13372 | 239 ft | 0 kts | 317° |
| 2026-04-21 22:38 | 50.87304 | 7.13371 | 239 ft | 0 kts | 317° |
| 2026-04-21 22:52 | 50.87314 | 7.13357 | 239 ft | 10 kts | 317° |
| 2026-04-21 22:52 | 50.87415 | 7.13211 | 237 ft | 24 kts | 317° |
| 2026-04-21 22:52 | 50.87537 | 7.13035 | 239 ft | 24 kts | 318° |
| 2026-04-21 22:53 | 50.87660 | 7.12861 | 238 ft | 24 kts | 318° |
| 2026-04-21 22:53 | 50.87688 | 7.12821 | 240 ft | 0 kts | 318° |
| 2026-04-21 22:53 | 50.87688 | 7.12820 | 238 ft | 1 kts | 317° |
| 2026-04-21 22:54 | 50.87747 | 7.12741 | 237 ft | 22 kts | 320° |
| 2026-04-21 22:54 | 50.87883 | 7.12615 | 236 ft | 15 kts | 10° |
| 2026-04-21 22:54 | 50.87964 | 7.12682 | 241 ft | 12 kts | 35° |
| 2026-04-21 22:54 | 50.88001 | 7.12797 | 240 ft | 12 kts | 75° |
| 2026-04-21 22:55 | 50.88008 | 7.12928 | 242 ft | 12 kts | 87° |
| 2026-04-21 22:55 | 50.87981 | 7.13008 | 244 ft | 0 kts | 139° |
| 2026-04-21 22:56 | 50.87979 | 7.13012 | 244 ft | 0 kts | 139° |
| 2026-04-21 22:56 | 50.87978 | 7.13013 | 244 ft | 3 kts | 139° |
| 2026-04-21 22:57 | 50.87868 | 7.13167 | 247 ft | 54 kts | 137° |
| 2026-04-21 22:57 | 50.87370 | 7.13892 | 252 ft | 138 kts | 138° |
| 2026-04-21 22:57 | 50.86484 | 7.15180 | 333 ft | 196 kts | 135° |
| 2026-04-21 22:57 | 50.85894 | 7.16038 | 728 ft | 200 kts | 135° |
| 2026-04-21 22:58 | 50.85437 | 7.16704 | 1014 ft | 208 kts | 136° |
| 2026-04-21 22:58 | 50.84319 | 7.18156 | 1950 ft | 207 kts | 140° |
| 2026-04-21 22:58 | 50.83118 | 7.19431 | 2579 ft | 214 kts | 148° |
| 2026-04-21 22:58 | 50.81852 | 7.20635 | 2786 ft | 214 kts | 147° |
| 2026-04-21 22:59 | 50.80569 | 7.21897 | 2790 ft | 218 kts | 146° |
| 2026-04-21 22:59 | 50.79284 | 7.23136 | 2724 ft | 214 kts | 146° |
| 2026-04-21 22:59 | 50.78006 | 7.24334 | 2774 ft | 214 kts | 146° |
| 2026-04-21 22:59 | 50.76722 | 7.25517 | 2778 ft | 212 kts | 147° |
| 2026-04-21 23:00 | 50.75479 | 7.26676 | 2743 ft | 203 kts | 147° |
| 2026-04-21 23:00 | 50.74271 | 7.27862 | 2782 ft | 207 kts | 146° |
| 2026-04-21 23:00 | 50.73098 | 7.29163 | 2754 ft | 204 kts | 131° |
| 2026-04-21 23:00 | 50.72507 | 7.31096 | 2802 ft | 197 kts | 95° |
| 2026-04-21 23:01 | 50.72838 | 7.33208 | 2777 ft | 209 kts | 60° |
| 2026-04-21 23:01 | 50.73993 | 7.34642 | 2786 ft | 221 kts | 25° |
| 2026-04-21 23:01 | 50.75560 | 7.34786 | 2794 ft | 233 kts | 355° |
| 2026-04-21 23:01 | 50.77157 | 7.34211 | 2777 ft | 237 kts | 353° |
| 2026-04-21 23:02 | 50.78760 | 7.33669 | 2783 ft | 235 kts | 353° |
| 2026-04-21 23:02 | 50.80348 | 7.33128 | 2781 ft | 233 kts | 352° |
| 2026-04-21 23:02 | 50.81927 | 7.32575 | 2777 ft | 232 kts | 353° |
| 2026-04-21 23:02 | 50.83489 | 7.31971 | 2749 ft | 230 kts | 345° |
| 2026-04-21 23:03 | 50.84911 | 7.30733 | 2831 ft | 238 kts | 332° |
| 2026-04-21 23:03 | 50.86325 | 7.29310 | 2795 ft | 242 kts | 332° |
| 2026-04-21 23:03 | 50.87753 | 7.27909 | 2789 ft | 241 kts | 333° |
| 2026-04-21 23:03 | 50.89156 | 7.26541 | 2778 ft | 239 kts | 333° |
| 2026-04-21 23:04 | 50.90563 | 7.25165 | 2788 ft | 236 kts | 333° |
| 2026-04-21 23:04 | 50.91959 | 7.23798 | 2791 ft | 237 kts | 333° |
| 2026-04-21 23:04 | 50.93372 | 7.22396 | 2788 ft | 241 kts | 333° |
| 2026-04-21 23:04 | 50.94801 | 7.20987 | 2789 ft | 242 kts | 333° |
| 2026-04-21 23:05 | 50.96231 | 7.19590 | 2782 ft | 240 kts | 333° |
| 2026-04-21 23:05 | 50.97641 | 7.18196 | 2772 ft | 237 kts | 329° |
| 2026-04-21 23:05 | 50.98935 | 7.16565 | 2789 ft | 240 kts | 323° |
| 2026-04-21 23:05 | 51.00204 | 7.14806 | 2800 ft | 244 kts | 322° |
| 2026-04-21 23:06 | 51.01487 | 7.13033 | 2788 ft | 244 kts | 322° |
| 2026-04-21 23:06 | 51.02762 | 7.11273 | 2783 ft | 241 kts | 322° |
| 2026-04-21 23:06 | 51.03808 | 7.09242 | 2744 ft | 235 kts | 294° |
| 2026-04-21 23:06 | 51.04020 | 7.06752 | 2795 ft | 228 kts | 258° |
| 2026-04-21 23:07 | 51.03332 | 7.04575 | 2779 ft | 219 kts | 220° |
| 2026-04-21 23:07 | 51.02150 | 7.03102 | 2807 ft | 217 kts | 213° |
| 2026-04-21 23:07 | 51.00941 | 7.01700 | 2789 ft | 214 kts | 212° |
| 2026-04-21 23:07 | 50.99721 | 7.00513 | 2745 ft | 195 kts | 191° |
| 2026-04-21 23:08 | 50.98426 | 7.00347 | 2805 ft | 186 kts | 176° |
| 2026-04-21 23:08 | 50.97148 | 7.00424 | 2632 ft | 181 kts | 165° |
| 2026-04-21 23:08 | 50.96008 | 7.01100 | 2328 ft | 171 kts | 142° |